NCAR-RAP Real-Time Weather Data

Output produced by METARs form (12 May 2021  12:26 UTC)
found at http://weather.rap.ucar.edu/surface/
 
KPVD 121151Z 28010G21KT 10SM FEW035 FEW300 10/01 A3005 RMK AO2 SLP176 T01000011 10100 20067 53010
KPVD 121051Z 27010KT 10SM FEW030 FEW300 09/00 A3004 RMK AO2 SLP172 T00890000
KPVD 120951Z 26009KT 10SM FEW030 FEW300 07/M01 A3002 RMK AO2 SLP165 T00721006
KPVD 120851Z 28010KT 10SM CLR 07/M01 A3002 RMK AO2 SLP165 T00721011 55001
KPVD 120751Z 27005KT 10SM CLR 07/M02 A3001 RMK AO2 SLP161 T00721017
KPVD 120651Z 27005KT 10SM CLR 08/M02 A3001 RMK AO2 SLP164 T00781022
KPVD 120551Z 29005KT 10SM CLR 09/M03 A3002 RMK AO2 SLP167 T00891028 10150 20089 50006
KPVD 120451Z 29012G16KT 10SM CLR 10/M03 A3003 RMK AO2 SLP169 T01001033 401890094
KPVD 120351Z 29012G17KT 10SM FEW100 11/M04 A3001 RMK AO2 SLP162 LAST T01061039
KPVD 120251Z 30007KT 10SM FEW100 11/M02 A3000 RMK AO2 SLP160 T01111022 50015
KPVD 120151Z COR 30013G20KT 10SM SCT100 13/M03 A3000 RMK AO2 SLP160 T01281033
KPVD 120051Z 28008KT 10SM SCT100 14/M03 A2998 RMK AO2 SLP151 T01391033
KPVD 112351Z 30009KT 10SM SCT110 15/M04 A2996 RMK AO2 SLP145 T01501039 10189 20150 53010
KPVD 112251Z 28009KT 10SM SCT110 17/M04 A2993 RMK AO2 SLP136 T01671039
KPVD 112151Z 27013G21KT 10SM BKN110 17/M04 A2993 RMK AO2 SLP135 T01671039
KPVD 112051Z COR 30016G20KT 10SM BKN100 17/M04 A2993 RMK AO2 SLP134 T01721039 55002